Time;durP1;ratioP1;P1;durP2;ratioP2;P2;SDS_P1;SDS_P2;PMS_P1;PMS_P2;Temp;Humidity;BMP_temperature;BMP_pressure;BME280_temperature;BME280_humidity;BME280_pressure;Samples;Min_cycle;Max_cycle;Signal;HPM_P1;HPM_P2
2022/01/11 00:00:35;;;;;;;31.42;21.00;;;;;;;1.34;87.09;102844.59;5053227;28;20396;-69
2022/01/11 00:03:03;;;;;;;35.95;22.77;;;;;;;1.35;86.79;102856.13;5055682;28;20048;-68
2022/01/11 00:05:35;;;;;;;36.40;22.75;;;;;;;1.35;86.75;102856.97;5054610;28;20025;-69
2022/01/11 00:08:01;;;;;;;40.25;22.23;;;;;;;1.27;86.07;102863.84;5055515;28;20033;-69
2022/01/11 00:10:32;;;;;;;33.40;21.17;;;;;;;1.31;86.36;102876.84;5055759;28;20494;-69
2022/01/11 00:12:59;;;;;;;32.83;21.40;;;;;;;1.23;86.08;102880.06;5055430;28;20025;-69
2022/01/11 00:15:24;;;;;;;34.60;22.13;;;;;;;1.26;86.54;102883.50;5055664;28;20082;-69
2022/01/11 00:17:50;;;;;;;36.65;21.20;;;;;;;1.21;86.39;102892.69;5067455;28;20028;-69
2022/01/11 00:20:19;;;;;;;35.80;23.00;;;;;;;1.22;87.06;102888.19;5075232;28;20563;-69
2022/01/11 00:24:28;;;;;;;35.40;22.77;;;;;;;1.17;87.06;102880.53;5075750;28;20142;-68
2022/01/11 00:25:38;;;;;;;37.53;21.75;;;;;;;1.19;87.39;102883.09;5075171;28;20048;-68
2022/01/11 00:28:05;;;;;;;37.65;22.85;;;;;;;1.19;86.46;102878.63;5073887;28;20037;-69
2022/01/11 00:30:36;;;;;;;35.60;22.30;;;;;;;1.25;86.78;102877.28;5074087;28;20087;-68
2022/01/11 00:33:06;;;;;;;37.43;23.67;;;;;;;1.31;86.78;102884.00;5074827;28;20368;-68
2022/01/11 00:35:57;;;;;;;37.95;23.73;;;;;;;1.33;87.27;102879.38;5075275;28;20036;-68
2022/01/11 00:38:24;;;;;;;37.92;24.05;;;;;;;1.28;87.34;102868.22;5074025;28;20056;-69
2022/01/11 00:40:53;;;;;;;38.13;23.92;;;;;;;1.29;87.13;102870.78;5055174;28;20087;-69
2022/01/11 00:43:21;;;;;;;38.53;23.35;;;;;;;1.31;87.03;102876.00;5054685;28;20039;-68
2022/01/11 00:45:47;;;;;;;43.45;25.65;;;;;;;1.24;87.07;102867.59;5055113;28;20475;-68
2022/01/11 00:48:13;;;;;;;40.25;24.33;;;;;;;1.24;87.56;102868.44;5054845;28;20098;-68
2022/01/11 00:50:39;;;;;;;42.58;26.33;;;;;;;1.22;87.29;102872.19;5055071;28;20028;-68
2022/01/11 00:53:05;;;;;;;40.90;24.80;;;;;;;1.21;87.23;102860.69;5067177;28;20432;-68
2022/01/11 00:55:32;;;;;;;41.08;24.70;;;;;;;1.28;87.89;102870.88;5075026;28;20032;-68
2022/01/11 00:57:57;;;;;;;40.53;25.38;;;;;;;1.33;87.52;102871.38;5074717;28;20367;-68
2022/01/11 01:00:22;;;;;;;41.40;25.30;;;;;;;1.36;87.64;102860.47;5073917;28;20045;-68
2022/01/11 01:02:48;;;;;;;42.22;25.23;;;;;;;1.40;87.43;102861.97;5072812;28;20028;-68
2022/01/11 01:05:17;;;;;;;43.03;25.30;;;;;;;1.36;87.40;102863.16;5072559;28;20028;-68
2022/01/11 01:07:45;;;;;;;43.22;25.13;;;;;;;1.41;87.87;102874.34;5074724;28;20029;-68
2022/01/11 01:10:26;;;;;;;41.42;25.02;;;;;;;1.41;86.89;102867.19;5073174;28;20040;-68
2022/01/11 01:12:56;;;;;;;48.00;26.08;;;;;;;1.40;87.08;102876.19;5059683;28;20033;-68
2022/01/11 01:15:22;;;;;;;45.00;26.20;;;;;;;1.33;86.62;102884.72;5054342;28;20078;-68
2022/01/11 01:17:48;;;;;;;46.67;25.85;;;;;;;1.33;86.95;102879.38;5054231;28;20037;-68
2022/01/11 01:20:14;;;;;;;45.80;25.58;;;;;;;1.34;86.93;102887.28;5052863;28;20036;-69
2022/01/11 01:22:39;;;;;;;46.30;26.08;;;;;;;1.36;87.39;102880.03;5054437;28;20090;-69
2022/01/11 01:25:06;;;;;;;46.38;24.77;;;;;;;1.44;86.89;102886.63;5053859;28;20060;-69
2022/01/11 01:27:31;;;;;;;46.13;25.48;;;;;;;1.42;87.40;102881.41;5054299;28;20041;-68
2022/01/11 01:29:57;;;;;;;52.15;27.05;;;;;;;1.44;87.40;102871.44;5053017;28;20099;-69
2022/01/11 01:32:23;;;;;;;46.80;27.02;;;;;;;1.42;86.66;102873.38;5054294;28;20361;-69
2022/01/11 01:34:49;;;;;;;47.03;26.55;;;;;;;1.49;87.48;102879.94;5066603;28;20025;-69
2022/01/11 01:37:15;;;;;;;46.13;26.73;;;;;;;1.46;86.64;102882.00;5073638;28;20387;-69
2022/01/11 01:39:40;;;;;;;49.03;27.27;;;;;;;1.45;86.43;102883.84;5074012;28;20056;-68
2022/01/11 01:42:08;;;;;;;46.28;26.42;;;;;;;1.45;87.18;102881.16;5073138;28;20069;-69
2022/01/11 01:44:34;;;;;;;50.65;27.15;;;;;;;1.47;87.39;102876.56;5074001;28;20060;-68
2022/01/11 01:47:00;;;;;;;47.58;26.40;;;;;;;1.45;86.88;102881.16;5073807;28;20408;-68
2022/01/11 01:49:26;;;;;;;50.65;27.08;;;;;;;1.45;86.69;102874.97;5073968;28;20044;-69
2022/01/11 01:51:52;;;;;;;46.30;25.98;;;;;;;1.45;86.88;102886.50;5072600;28;20040;-68
2022/01/11 01:54:18;;;;;;;47.05;26.42;;;;;;;1.34;87.07;102879.28;5073312;28;20040;-69
2022/01/11 01:56:44;;;;;;;50.22;27.15;;;;;;;1.38;86.95;102879.91;5071999;28;20024;-69
2022/01/11 01:59:10;;;;;;;49.50;25.42;;;;;;;1.36;86.63;102880.03;5073153;28;20045;-68
2022/01/11 02:01:43;;;;;;;45.92;25.55;;;;;;;1.35;87.03;102874.81;5071274;28;20165;-68
2022/01/11 02:04:09;;;;;;;49.35;25.00;;;;;;;1.35;86.71;102883.66;5073405;28;20365;-69
2022/01/11 02:06:34;;;;;;;46.78;26.35;;;;;;;1.32;86.97;102891.03;5073813;28;20031;-69
2022/01/11 02:09:00;;;;;;;44.40;25.80;;;;;;;1.32;86.49;102897.22;5073392;28;20044;-68
2022/01/11 02:11:25;;;;;;;43.78;24.10;;;;;;;1.30;86.59;102895.63;5073134;28;20468;-68
2022/01/11 02:13:51;;;;;;;47.58;25.08;;;;;;;1.31;86.81;102905.34;5073089;28;20024;-68
2022/01/11 02:16:21;;;;;;;46.03;23.75;;;;;;;1.31;86.45;102898.16;5072495;28;20032;-69
2022/01/11 02:18:46;;;;;;;42.75;24.30;;;;;;;1.31;86.32;102900.00;5065838;28;20021;-69
2022/01/11 02:21:12;;;;;;;44.80;24.05;;;;;;;1.33;86.86;102901.59;5052999;28;20029;-68
2022/01/11 02:23:37;;;;;;;42.90;24.25;;;;;;;1.34;86.18;102916.63;5058218;28;20086;-68
2022/01/11 02:26:04;;;;;;;49.80;25.75;;;;;;;1.26;86.51;102920.84;5072617;28;20112;-68
2022/01/11 02:28:30;;;;;;;44.15;24.42;;;;;;;1.26;86.77;102921.69;5073212;28;20021;-68
2022/01/11 02:30:58;;;;;;;47.40;25.73;;;;;;;1.19;86.25;102920.41;5073137;28;20024;-68
2022/01/11 02:33:35;;;;;;;45.47;24.73;;;;;;;1.22;87.38;102920.19;5071551;28;20024;-69
2022/01/11 02:36:06;;;;;;;41.60;23.73;;;;;;;1.22;87.51;102915.72;5073049;28;20037;-68
2022/01/11 02:38:32;;;;;;;44.63;24.58;;;;;;;1.28;87.11;102908.22;5072959;28;20045;-68
2022/01/11 02:40:58;;;;;;;42.42;24.25;;;;;;;1.25;86.22;102919.97;5071048;28;20085;-68
2022/01/11 02:43:24;;;;;;;42.38;24.20;;;;;;;1.28;86.47;102929.56;5071371;28;20043;-68
2022/01/11 02:45:50;;;;;;;47.30;23.33;;;;;;;1.28;86.71;102930.41;5071330;28;20024;-68
2022/01/11 02:48:15;;;;;;;48.58;24.98;;;;;;;1.30;86.85;102932.97;5072759;28;20033;-69
2022/01/11 02:50:41;;;;;;;44.97;24.60;;;;;;;1.29;86.15;102940.13;5073191;28;20511;-68
2022/01/11 02:53:08;;;;;;;45.78;25.38;;;;;;;1.26;86.56;102939.50;5072582;28;20107;-68
2022/01/11 02:55:37;;;;;;;44.38;25.63;;;;;;;1.19;86.59;102942.63;5072502;28;20383;-69
2022/01/11 02:58:03;;;;;;;44.90;24.80;;;;;;;1.24;86.55;102945.78;5071436;28;20025;-68
2022/01/11 03:00:29;;;;;;;46.90;25.17;;;;;;;1.23;87.07;102944.09;5071061;28;20095;-68
2022/01/11 03:02:54;;;;;;;50.70;26.17;;;;;;;1.21;86.30;102942.50;5070230;28;20488;-68
2022/01/11 03:05:19;;;;;;;48.75;26.25;;;;;;;1.22;85.80;102942.41;5072132;28;20093;-68
2022/01/11 03:07:45;;;;;;;45.63;24.88;;;;;;;1.23;86.01;102938.75;5071321;28;20020;-68
2022/01/11 03:10:23;;;;;;;46.97;26.27;;;;;;;1.23;86.83;102943.25;5072328;28;20028;-69
2022/01/11 03:12:49;;;;;;;45.22;25.98;;;;;;;1.21;86.71;102938.03;5072582;28;20082;-68
2022/01/11 03:15:15;;;;;;;44.97;25.45;;;;;;;1.27;86.40;102946.53;5072023;28;20103;-69
2022/01/11 03:17:40;;;;;;;48.92;26.35;;;;;;;1.27;86.27;102938.53;5072488;28;20036;-69
2022/01/11 03:20:07;;;;;;;47.67;24.33;;;;;;;1.29;86.38;102952.63;5072229;28;20029;-68
2022/01/11 03:22:33;;;;;;;43.47;24.45;;;;;;;1.29;86.67;102941.94;5071100;28;20383;-69
2022/01/11 03:24:58;;;;;;;44.33;24.40;;;;;;;1.24;85.92;102943.13;5069464;28;20039;-69
2022/01/11 03:27:24;;;;;;;47.30;25.73;;;;;;;1.28;86.46;102945.56;5071913;28;20554;-67
2022/01/11 03:29:51;;;;;;;44.20;24.73;;;;;;;1.21;85.83;102940.69;5076308;28;20033;-69
2022/01/11 03:32:18;;;;;;;44.00;24.40;;;;;;;1.19;86.54;102942.63;5075990;28;20043;-73
2022/01/11 03:34:45;;;;;;;44.03;24.40;;;;;;;1.21;85.62;102940.69;5076502;28;20375;-67
2022/01/11 03:37:13;;;;;;;46.08;25.13;;;;;;;1.19;85.94;102941.75;5076207;28;20028;-67
2022/01/11 03:39:38;;;;;;;43.60;25.45;;;;;;;1.19;85.99;102934.63;5076419;28;20029;-67
2022/01/11 03:42:04;;;;;;;43.55;24.23;;;;;;;1.16;85.76;102940.19;5076265;28;20521;-66
2022/01/11 03:44:29;;;;;;;43.78;24.95;;;;;;;1.06;85.70;102931.13;5076243;28;20028;-67
2022/01/11 03:46:55;;;;;;;44.72;24.38;;;;;;;1.09;85.72;102935.38;5075927;28;20032;-67
2022/01/11 03:49:20;;;;;;;42.83;24.50;;;;;;;1.04;86.54;102933.91;5074823;28;20032;-67
2022/01/11 03:51:49;;;;;;;45.25;25.50;;;;;;;1.06;85.95;102933.81;5075149;28;20039;-67
2022/01/11 03:54:22;;;;;;;43.85;25.05;;;;;;;1.05;85.83;102932.09;5075898;28;20035;-67
2022/01/11 03:56:47;;;;;;;44.65;24.70;;;;;;;1.04;85.65;102933.03;5076341;28;20036;-67
2022/01/11 03:59:12;;;;;;;41.50;24.23;;;;;;;1.12;86.03;102936.03;5075446;28;20041;-67
2022/01/11 04:01:38;;;;;;;45.20;24.45;;;;;;;1.14;86.13;102939.41;5073604;28;20456;-67
2022/01/11 04:04:05;;;;;;;44.35;23.77;;;;;;;1.12;85.43;102938.69;5075923;28;20051;-67
2022/01/11 04:06:31;;;;;;;40.00;23.50;;;;;;;1.13;85.98;102939.53;5075554;28;20032;-67
2022/01/11 04:08:57;;;;;;;43.42;23.33;;;;;;;1.10;86.28;102943.25;5075842;28;20027;-67
2022/01/11 04:11:22;;;;;;;41.70;22.95;;;;;;;1.13;85.90;102945.72;5073802;28;20111;-66
2022/01/11 04:13:48;;;;;;;45.13;24.42;;;;;;;1.10;86.44;102947.75;5074444;28;20027;-66
2022/01/11 04:16:16;;;;;;;40.35;23.25;;;;;;;1.04;85.47;102960.59;5075460;28;20068;-67
2022/01/11 04:18:41;;;;;;;43.58;24.65;;;;;;;1.02;85.64;102956.31;5075599;28;20112;-67
2022/01/11 04:21:07;;;;;;;40.13;23.30;;;;;;;1.04;86.16;102951.72;5075554;28;20119;-66
2022/01/11 04:23:33;;;;;;;39.92;22.48;;;;;;;1.04;86.18;102954.38;5074029;28;20430;-67
2022/01/11 04:25:59;;;;;;;38.47;23.80;;;;;;;1.05;86.30;102953.44;5075514;28;20032;-67
2022/01/11 04:28:25;;;;;;;41.22;23.98;;;;;;;1.02;86.15;102942.97;5074955;28;20387;-67
2022/01/11 04:30:52;;;;;;;40.15;24.35;;;;;;;0.96;85.31;102951.41;5075393;28;20036;-67
2022/01/11 04:33:18;;;;;;;37.75;22.52;;;;;;;0.91;85.33;102965.09;5073480;28;20036;-67
2022/01/11 04:35:48;;;;;;;37.33;22.10;;;;;;;0.95;86.50;102963.91;5075056;28;20094;-67
2022/01/11 04:38:13;;;;;;;36.58;22.70;;;;;;;0.89;85.99;102966.97;5074835;28;20033;-67
2022/01/11 04:40:39;;;;;;;41.78;23.70;;;;;;;0.89;85.75;102972.31;5074041;28;20028;-66
2022/01/11 04:43:04;;;;;;;38.08;22.58;;;;;;;0.92;86.14;102969.47;5075333;28;20103;-67
2022/01/11 04:45:29;;;;;;;38.80;21.98;;;;;;;0.89;85.55;102964.31;5074683;28;20033;-67
2022/01/11 04:47:56;;;;;;;37.97;22.23;;;;;;;0.92;85.50;102966.78;5073502;28;20032;-67
2022/01/11 04:50:26;;;;;;;41.35;23.50;;;;;;;0.91;85.53;102962.41;5074820;28;20082;-67
2022/01/11 04:52:51;;;;;;;37.47;23.13;;;;;;;0.94;85.65;102966.69;5075007;28;20093;-67
2022/01/11 04:55:17;;;;;;;40.28;23.60;;;;;;;0.91;85.42;102964.22;5073046;28;20040;-67
2022/01/11 04:57:43;;;;;;;38.55;22.25;;;;;;;0.90;85.12;102967.84;5075219;28;20103;-67
2022/01/11 05:00:09;;;;;;;38.25;23.05;;;;;;;0.87;85.40;102959.09;5073339;28;20045;-67
2022/01/11 05:02:34;;;;;;;37.45;21.98;;;;;;;0.82;85.84;102953.25;5072045;28;20052;-67
2022/01/11 05:04:59;;;;;;;38.15;23.35;;;;;;;0.81;85.71;102951.53;5074873;28;20455;-67
2022/01/11 05:07:25;;;;;;;40.83;23.30;;;;;;;0.82;85.18;102955.06;5074491;28;20479;-67
2022/01/11 05:09:51;;;;;;;37.58;23.23;;;;;;;0.77;85.21;102954.53;5074692;28;20062;-67
2022/01/11 05:12:17;;;;;;;39.05;23.13;;;;;;;0.80;85.35;102951.66;5074488;28;20035;-66
2022/01/11 05:14:42;;;;;;;43.08;24.27;;;;;;;0.77;85.19;102946.53;5065324;28;20024;-67
2022/01/11 05:17:07;;;;;;;39.83;23.77;;;;;;;0.75;85.56;102957.31;5053220;28;20048;-66
2022/01/11 05:19:32;;;;;;;39.90;24.45;;;;;;;0.72;85.30;102948.69;5054568;28;20037;-67
2022/01/11 05:21:58;;;;;;;39.75;23.88;;;;;;;0.73;85.46;102951.25;5054114;28;20078;-66
2022/01/11 05:24:23;;;;;;;40.15;24.88;;;;;;;0.75;86.10;102954.63;5054220;28;20055;-66
2022/01/11 05:26:48;;;;;;;43.83;24.27;;;;;;;0.71;85.56;102950.50;5054405;28;20107;-67
2022/01/11 05:29:13;;;;;;;41.50;25.40;;;;;;;0.70;85.26;102938.97;5054107;28;20070;-67
2022/01/11 05:31:39;;;;;;;42.78;24.38;;;;;;;0.72;85.30;102932.69;5054277;28;20029;-66
2022/01/11 05:34:04;;;;;;;42.90;25.40;;;;;;;0.68;85.00;102942.69;5058854;28;20064;-67
2022/01/11 05:36:29;;;;;;;47.00;26.73;;;;;;;0.67;85.04;102951.69;5074121;28;20033;-67
2022/01/11 05:38:54;;;;;;;43.75;25.15;;;;;;;0.62;84.78;102952.00;5074224;28;20383;-66
2022/01/11 05:41:20;;;;;;;43.42;25.80;;;;;;;0.64;85.04;102946.56;5073419;28;20040;-67
2022/01/11 05:43:45;;;;;;;45.45;26.08;;;;;;;0.65;85.99;102943.78;5074018;28;20396;-67
2022/01/11 05:46:11;;;;;;;44.10;25.92;;;;;;;0.61;85.63;102944.97;5072675;28;20059;-67
2022/01/11 05:48:36;;;;;;;45.88;26.98;;;;;;;0.64;86.09;102952.75;5073770;28;20161;-67
2022/01/11 05:51:02;;;;;;;46.05;25.98;;;;;;;0.65;86.04;102958.91;5073365;28;20028;-67
2022/01/11 05:53:27;;;;;;;47.55;25.98;;;;;;;0.63;85.77;102961.69;5071163;28;20028;-67
2022/01/11 05:55:52;;;;;;;45.33;25.65;;;;;;;0.62;84.80;102953.78;5054081;28;20490;-67
2022/01/11 05:58:18;;;;;;;51.22;26.38;;;;;;;0.63;85.21;102960.84;5053560;28;20032;-67
2022/01/11 06:00:43;;;;;;;44.50;25.52;;;;;;;0.62;85.65;102964.44;5049871;28;20063;-67
2022/01/11 06:03:08;;;;;;;44.05;25.35;;;;;;;0.62;85.69;102970.66;5053461;28;20029;-67
2022/01/11 06:05:38;;;;;;;42.05;24.98;;;;;;;0.61;84.70;102981.41;5053698;28;20461;-66
2022/01/11 06:08:04;;;;;;;41.88;24.55;;;;;;;0.62;85.07;102996.44;5065411;28;20025;-67
2022/01/11 06:10:30;;;;;;;41.30;24.25;;;;;;;0.65;85.51;102986.44;5072964;28;20067;-67
2022/01/11 06:12:55;;;;;;;42.70;24.25;;;;;;;0.65;84.59;102997.09;5073440;28;20114;-67
2022/01/11 06:15:20;;;;;;;41.97;24.17;;;;;;;0.65;85.21;102996.22;5072611;28;20024;-67
2022/01/11 06:17:46;;;;;;;39.85;22.90;;;;;;;0.72;85.24;102996.66;5073185;28;20480;-67
2022/01/11 06:20:11;;;;;;;44.33;24.40;;;;;;;0.67;84.92;102995.16;5073303;28;20417;-67
2022/01/11 06:22:37;;;;;;;42.85;23.77;;;;;;;0.68;85.57;103007.53;5073037;28;20430;-67
2022/01/11 06:25:04;;;;;;;43.30;23.98;;;;;;;0.65;84.70;103007.75;5072955;28;20380;-67
2022/01/11 06:27:31;;;;;;;40.03;21.92;;;;;;;0.66;84.63;103016.59;5063580;28;20029;-66
2022/01/11 06:29:56;;;;;;;42.25;23.88;;;;;;;0.66;84.89;103013.91;5053216;28;20035;-67
2022/01/11 06:32:22;;;;;;;38.35;23.52;;;;;;;0.63;85.10;103011.47;5052675;28;20025;-67
2022/01/11 06:34:47;;;;;;;39.58;22.70;;;;;;;0.63;84.90;103020.31;5053214;28;20028;-66
2022/01/11 06:37:12;;;;;;;39.53;22.73;;;;;;;0.62;84.97;103023.06;5053169;28;20472;-67
2022/01/11 06:39:38;;;;;;;37.00;22.60;;;;;;;0.59;84.84;103015.28;5052874;28;20141;-67
2022/01/11 06:42:04;;;;;;;40.42;22.83;;;;;;;0.62;84.95;103020.41;5052772;28;20033;-67
2022/01/11 06:44:29;;;;;;;42.47;23.95;;;;;;;0.61;85.16;103026.72;5052690;28;20047;-67
2022/01/11 06:46:55;;;;;;;37.10;22.45;;;;;;;0.58;84.70;103030.44;5052637;28;20025;-67
2022/01/11 06:49:20;;;;;;;37.95;22.35;;;;;;;0.57;84.64;103025.22;5053978;28;20025;-67
2022/01/11 06:51:45;;;;;;;39.80;22.08;;;;;;;0.56;84.66;103028.81;5052810;28;20037;-67
2022/01/11 06:54:11;;;;;;;39.88;22.27;;;;;;;0.53;84.42;103025.44;5051596;28;20099;-67
2022/01/11 06:56:36;;;;;;;40.35;23.50;;;;;;;0.57;85.12;103035.88;5052651;28;20060;-67
2022/01/11 06:59:02;;;;;;;37.90;23.17;;;;;;;0.59;84.85;103031.28;5052686;28;20037;-67
2022/01/11 07:01:29;;;;;;;37.78;22.05;;;;;;;0.53;84.43;103029.91;5049901;28;20029;-66
2022/01/11 07:03:54;;;;;;;37.08;21.92;;;;;;;0.52;84.84;103029.03;5052068;28;20075;-67
2022/01/11 07:06:19;;;;;;;34.90;22.30;;;;;;;0.55;84.48;103032.47;5052109;28;20078;-67
2022/01/11 07:08:45;;;;;;;39.22;23.13;;;;;;;0.51;84.96;103035.34;5056912;28;20028;-67
2022/01/11 07:11:11;;;;;;;40.05;23.35;;;;;;;0.50;84.57;103041.63;5072617;28;20036;-67
2022/01/11 07:13:37;;;;;;;37.13;22.23;;;;;;;0.47;84.46;103035.66;5072367;28;20122;-67
2022/01/11 07:16:02;;;;;;;38.47;22.92;;;;;;;0.48;83.62;103040.88;5072624;28;20042;-66
2022/01/11 07:18:27;;;;;;;37.75;23.10;;;;;;;0.48;84.99;103042.66;5072325;28;20111;-67
2022/01/11 07:20:53;;;;;;;40.38;23.48;;;;;;;0.45;84.39;103049.06;5072138;28;20125;-67
2022/01/11 07:23:18;;;;;;;40.35;23.10;;;;;;;0.45;84.27;103048.22;5072478;28;20036;-67
2022/01/11 07:25:44;;;;;;;37.63;23.30;;;;;;;0.48;84.38;103058.66;5070670;28;20430;-67
2022/01/11 07:28:11;;;;;;;45.75;24.95;;;;;;;0.42;84.89;103059.06;5072146;28;20031;-67
2022/01/11 07:30:36;;;;;;;44.17;24.63;;;;;;;0.41;83.81;103058.22;5056128;28;20032;-67
2022/01/11 07:33:02;;;;;;;42.28;24.08;;;;;;;0.42;84.32;103065.25;5072101;28;20029;-67
2022/01/11 07:35:27;;;;;;;41.50;24.27;;;;;;;0.39;84.51;103068.13;5072179;28;20464;-67
2022/01/11 07:37:53;;;;;;;42.90;24.50;;;;;;;0.38;84.22;103068.22;5071002;28;20475;-67
2022/01/11 07:40:18;;;;;;;42.15;24.58;;;;;;;0.42;84.08;103078.56;5072244;28;20060;-67
2022/01/11 07:42:44;;;;;;;41.95;23.92;;;;;;;0.43;84.49;103077.63;5071653;28;20031;-67
2022/01/11 07:45:09;;;;;;;43.20;24.48;;;;;;;0.42;84.50;103080.38;5072292;28;20078;-67
2022/01/11 07:47:34;;;;;;;39.28;23.30;;;;;;;0.42;84.55;103081.22;5072069;28;20036;-67
2022/01/11 07:50:00;;;;;;;38.47;23.05;;;;;;;0.44;84.19;103089.13;5057070;28;20114;-67
2022/01/11 07:52:25;;;;;;;40.92;23.10;;;;;;;0.43;84.87;103088.28;5052011;28;20071;-67
2022/01/11 07:54:52;;;;;;;41.92;24.05;;;;;;;0.42;84.20;103089.22;5052170;28;20036;-67
2022/01/11 07:57:18;;;;;;;39.15;23.30;;;;;;;0.40;84.29;103093.81;5052101;28;20044;-67
2022/01/11 07:59:43;;;;;;;39.55;22.00;;;;;;;0.45;84.00;103083.69;5051847;28;20045;-67
2022/01/11 08:02:08;;;;;;;36.05;21.92;;;;;;;0.41;84.29;103082.22;5049634;28;20516;-70
2022/01/11 08:04:34;;;;;;;37.15;21.65;;;;;;;0.44;84.11;103083.78;5051589;28;20032;-73
2022/01/11 08:06:59;;;;;;;36.17;21.58;;;;;;;0.43;84.00;103088.28;5051761;28;20056;-72
2022/01/11 08:09:25;;;;;;;35.13;21.58;;;;;;;0.47;84.46;103088.94;5061240;28;20077;-71
2022/01/11 08:11:51;;;;;;;36.63;21.30;;;;;;;0.43;84.21;103076.78;5061427;28;20060;-69
2022/01/11 08:14:16;;;;;;;36.40;22.02;;;;;;;0.44;84.59;103079.34;5069144;28;20032;-70
2022/01/11 08:16:42;;;;;;;35.97;20.83;;;;;;;0.50;83.68;103084.25;5074144;28;20115;-72
2022/01/11 08:19:07;;;;;;;34.58;20.05;;;;;;;0.55;83.68;103083.09;5071386;28;20032;-73
2022/01/11 08:21:33;;;;;;;35.85;19.98;;;;;;;0.56;84.29;103092.78;5061464;28;20041;-69
2022/01/11 08:23:59;;;;;;;32.97;20.55;;;;;;;0.58;83.94;103093.53;5055574;28;20032;-71
2022/01/11 08:26:24;;;;;;;33.35;20.73;;;;;;;0.60;83.96;103086.28;5054106;28;20061;-71
2022/01/11 08:28:49;;;;;;;33.50;20.75;;;;;;;0.66;84.02;103094.69;5055506;28;20055;-70
2022/01/11 08:31:14;;;;;;;35.97;21.25;;;;;;;0.70;83.87;103093.53;5055674;28;20078;-70
2022/01/11 08:33:40;;;;;;;31.73;19.70;;;;;;;0.76;83.59;103094.94;5055193;28;20036;-71
2022/01/11 08:36:06;;;;;;;33.95;20.00;;;;;;;0.81;83.73;103087.47;5055336;28;20031;-71
2022/01/11 08:38:31;;;;;;;33.30;19.35;;;;;;;0.80;83.49;103090.25;5054072;28;20376;-70
2022/01/11 08:40:56;;;;;;;34.22;19.70;;;;;;;0.82;83.60;103097.19;5054840;28;20040;-70
2022/01/11 08:43:22;;;;;;;33.38;19.42;;;;;;;0.84;83.80;103084.59;5055224;28;20037;-71
2022/01/11 08:45:47;;;;;;;34.45;20.33;;;;;;;0.91;83.69;103089.50;5054681;28;20029;-71
2022/01/11 08:48:12;;;;;;;32.13;18.70;;;;;;;0.92;83.21;103091.22;5055143;28;20029;-70
2022/01/11 08:50:38;;;;;;;32.22;19.83;;;;;;;0.95;83.33;103091.00;5054956;28;20060;-70
2022/01/11 08:53:03;;;;;;;36.08;19.75;;;;;;;0.95;83.51;103094.53;5055125;28;20045;-72
2022/01/11 08:55:29;;;;;;;33.00;19.02;;;;;;;1.02;83.41;103094.97;5054485;28;20099;-71
2022/01/11 08:57:55;;;;;;;33.97;19.98;;;;;;;1.09;84.02;103098.91;5054940;28;20044;-72
2022/01/11 09:00:20;;;;;;;31.73;19.35;;;;;;;1.15;83.20;103102.97;5053141;28;20049;-72
2022/01/11 09:02:47;;;;;;;33.25;18.50;;;;;;;1.18;83.18;103097.41;5050967;28;20482;-72
2022/01/11 09:05:14;;;;;;;29.13;17.98;;;;;;;1.18;83.13;103106.25;5054831;28;20415;-71
2022/01/11 09:07:40;;;;;;;33.70;18.13;;;;;;;1.23;83.66;103105.94;5054478;28;20032;-73
2022/01/11 09:10:07;;;;;;;27.65;17.42;;;;;;;1.24;82.56;103113.84;5053290;28;20025;-73
2022/01/11 09:12:32;;;;;;;29.25;17.15;;;;;;;1.27;82.10;103119.91;5052660;28;20029;-73
2022/01/11 09:14:57;;;;;;;31.17;18.90;;;;;;;1.24;82.71;103110.31;5055281;28;20029;-75
2022/01/11 09:17:23;;;;;;;28.40;17.33;;;;;;;1.27;82.34;103103.91;5054200;28;20379;-76
2022/01/11 09:19:48;;;;;;;27.33;17.20;;;;;;;1.32;82.45;103112.44;5052862;28;20028;-76
2022/01/11 09:22:13;;;;;;;32.17;18.23;;;;;;;1.39;83.21;103108.38;5052911;28;20523;-71
2022/01/11 09:24:39;;;;;;;28.83;17.83;;;;;;;1.39;82.76;103109.22;5065717;28;20090;-73
2022/01/11 09:27:05;;;;;;;29.42;17.10;;;;;;;1.44;82.68;103110.72;5073670;28;20107;-70
2022/01/11 09:29:32;;;;;;;28.45;17.25;;;;;;;1.50;82.92;103116.47;5073926;28;20035;-72
2022/01/11 09:31:59;;;;;;;31.60;17.38;;;;;;;1.56;82.27;103116.03;5074215;28;20055;-74
2022/01/11 09:34:24;;;;;;;30.73;17.50;;;;;;;1.58;83.27;103114.09;5073967;28;20055;-74
2022/01/11 09:36:50;;;;;;;29.42;17.05;;;;;;;1.68;81.71;103118.78;5073742;28;20036;-73
2022/01/11 09:39:16;;;;;;;27.02;17.00;;;;;;;1.72;82.40;103120.25;5082393;28;20544;-70
2022/01/11 09:41:41;;;;;;;29.05;16.67;;;;;;;1.80;82.86;103120.56;5087529;28;20046;-71
2022/01/11 09:44:07;;;;;;;28.75;17.83;;;;;;;1.82;82.33;103123.97;5073823;28;20039;-74
2022/01/11 09:46:33;;;;;;;28.17;16.88;;;;;;;1.89;82.37;103127.91;5072573;28;20025;-71
2022/01/11 09:49:00;;;;;;;27.05;16.70;;;;;;;1.94;81.97;103130.25;5073299;28;20040;-76
2022/01/11 09:51:25;;;;;;;28.23;16.88;;;;;;;1.96;81.34;103128.31;5073895;28;20025;-74
2022/01/11 09:53:51;;;;;;;26.88;16.30;;;;;;;2.03;80.86;103129.56;5073535;28;20028;-75
2022/01/11 09:56:17;;;;;;;28.40;17.23;;;;;;;2.07;81.75;103135.56;5068493;28;20145;-74
2022/01/11 09:58:44;;;;;;;26.75;16.15;;;;;;;2.06;82.08;103136.50;5068271;28;20123;-72
2022/01/11 10:01:10;;;;;;;26.30;15.40;;;;;;;2.10;81.97;103138.84;5070143;28;20706;-80
2022/01/11 10:04:04;;;;;;;28.10;16.00;;;;;;;2.16;81.55;103128.66;5073434;28;20060;-74
2022/01/11 10:06:31;;;;;;;27.23;15.82;;;;;;;2.20;81.24;103133.66;5064661;28;20426;-71
2022/01/11 10:09:20;;;;;;;27.77;15.68;;;;;;;2.28;80.89;103138.44;5063167;28;20032;-72
2022/01/11 10:11:49;;;;;;;26.40;14.52;;;;;;;2.28;80.48;103141.09;5052012;28;20545;-72
2022/01/11 10:14:22;;;;;;;23.98;14.95;;;;;;;2.37;80.37;103145.78;5053417;28;20029;-72
2022/01/11 10:16:49;;;;;;;24.48;14.48;;;;;;;2.38;80.29;103142.13;5053903;28;20033;-74
2022/01/11 10:19:23;;;;;;;24.88;15.30;;;;;;;2.42;80.75;103140.09;5071230;28;20077;-73
2022/01/11 10:21:50;;;;;;;23.10;14.85;;;;;;;2.44;80.44;103148.84;5072962;28;20017;-71
2022/01/11 10:24:42;;;;;;;23.23;14.35;;;;;;;2.51;81.30;103147.44;5071827;28;20028;-72
2022/01/11 10:27:21;;;;;;;25.25;14.50;;;;;;;2.55;80.26;103140.03;5073227;28;20024;-70
2022/01/11 10:29:50;;;;;;;22.90;13.88;;;;;;;2.56;79.65;103136.38;5059126;28;20021;-74
2022/01/11 10:32:37;;;;;;;26.63;14.60;;;;;;;2.61;80.31;103142.22;5053203;28;20087;-75
2022/01/11 10:35:05;;;;;;;25.35;14.05;;;;;;;2.62;79.79;103136.75;5072639;28;20040;-72
2022/01/11 10:37:36;;;;;;;27.42;15.52;;;;;;;2.65;80.21;103143.72;5068890;28;20509;-71
2022/01/11 10:40:06;;;;;;;26.83;14.30;;;;;;;2.70;80.05;103144.19;5072597;28;20028;-71
2022/01/11 10:42:34;;;;;;;23.15;13.65;;;;;;;2.72;79.80;103139.59;5072641;28;20118;-71
2022/01/11 10:45:09;;;;;;;24.23;13.38;;;;;;;2.77;78.97;103142.78;5072961;28;20025;-72
2022/01/11 10:47:37;;;;;;;24.15;13.80;;;;;;;2.79;79.43;103138.19;5071443;28;20060;-74
2022/01/11 10:50:09;;;;;;;26.83;14.45;;;;;;;2.84;79.03;103144.00;5052845;28;20025;-71
2022/01/11 10:52:35;;;;;;;;;;;;;;;2.96;80.26;103144.03;5053017;28;20025;-71
2022/01/11 10:55:03;;;;;;;23.83;13.10;;;;;;;2.92;79.30;103151.44;5053600;28;19971;-70
2022/01/11 10:57:31;;;;;;;23.65;13.57;;;;;;;2.98;79.52;103155.47;5052804;28;20029;-74
2022/01/11 11:00:11;;;;;;;24.45;13.10;;;;;;;3.05;79.72;103154.03;5052373;28;20075;-72
2022/01/11 11:02:38;;;;;;;21.98;13.63;;;;;;;3.04;79.38;103141.63;5050182;28;20391;-73
2022/01/11 11:05:10;;;;;;;23.30;13.38;;;;;;;3.09;79.12;103151.97;5060411;28;20043;-73
2022/01/11 11:07:35;;;;;;;21.25;12.82;;;;;;;3.10;79.07;103148.34;5072424;28;20089;-74
2022/01/11 11:10:01;;;;;;;24.52;12.93;;;;;;;3.09;78.67;103146.63;5071290;28;20028;-72
2022/01/11 11:12:26;;;;;;;23.85;13.20;;;;;;;3.10;79.25;103145.66;5072272;28;20024;-71
2022/01/11 11:14:57;;;;;;;21.33;13.00;;;;;;;3.11;79.17;103148.22;5070543;28;20032;-72